sensor_id;sensor_type;location;lat;lon;timestamp;pressure;altitude;pressure_sealevel;temperature;humidity
48874;BME280;66155;46.204;5.220;2023-03-22T00:03:22;98677.59;;;13.58;51.05
48874;BME280;66155;46.204;5.220;2023-03-22T00:08:25;98680.22;;;13.53;51.25
48874;BME280;66155;46.204;5.220;2023-03-22T00:13:28;98677.59;;;13.48;51.35
48874;BME280;66155;46.204;5.220;2023-03-22T00:18:28;98664.03;;;13.36;51.38
48874;BME280;66155;46.204;5.220;2023-03-22T00:23:29;98656.72;;;13.33;51.59
48874;BME280;66155;46.204;5.220;2023-03-22T00:28:30;98655.91;;;13.27;51.82
48874;BME280;66155;46.204;5.220;2023-03-22T00:33:31;98647.03;;;13.23;52.09
48874;BME280;66155;46.204;5.220;2023-03-22T00:38:31;98643.63;;;13.17;52.42
48874;BME280;66155;46.204;5.220;2023-03-22T00:43:38;98646.00;;;13.08;52.28
48874;BME280;66155;46.204;5.220;2023-03-22T00:48:41;98634.50;;;13.04;52.59
48874;BME280;66155;46.204;5.220;2023-03-22T00:53:42;98621.16;;;13.01;52.78
48874;BME280;66155;46.204;5.220;2023-03-22T00:58:54;98609.38;;;12.93;52.73
48874;BME280;66155;46.204;5.220;2023-03-22T01:03:55;98611.50;;;12.86;52.51
48874;BME280;66155;46.204;5.220;2023-03-22T01:08:58;98619.34;;;12.81;53.09
48874;BME280;66155;46.204;5.220;2023-03-22T01:13:59;98604.19;;;12.78;52.79
48874;BME280;66155;46.204;5.220;2023-03-22T01:19:00;98594.75;;;12.71;52.90
48874;BME280;66155;46.204;5.220;2023-03-22T01:24:04;98593.47;;;12.64;53.25
48874;BME280;66155;46.204;5.220;2023-03-22T01:29:05;98586.13;;;12.55;53.36
48874;BME280;66155;46.204;5.220;2023-03-22T01:34:08;98584.06;;;12.47;53.08
48874;BME280;66155;46.204;5.220;2023-03-22T01:39:09;98580.13;;;12.40;53.03
48874;BME280;66155;46.204;5.220;2023-03-22T01:49:22;98570.44;;;12.09;54.14
48874;BME280;66155;46.204;5.220;2023-03-22T01:54:34;98561.78;;;11.93;54.39
48874;BME280;66155;46.204;5.220;2023-03-22T01:59:42;98559.38;;;11.76;54.00
48874;BME280;66155;46.204;5.220;2023-03-22T02:04:46;98569.13;;;11.38;55.60
48874;BME280;66155;46.204;5.220;2023-03-22T02:09:51;98565.31;;;11.03;56.94
48874;BME280;66155;46.204;5.220;2023-03-22T02:20:06;98564.53;;;10.65;58.38
48874;BME280;66155;46.204;5.220;2023-03-22T02:41:44;98558.66;;;10.43;61.09
48874;BME280;66155;46.204;5.220;2023-03-22T02:46:58;98556.34;;;10.24;62.83
48874;BME280;66155;46.204;5.220;2023-03-22T02:53:01;98562.28;;;10.15;62.85
48874;BME280;66155;46.204;5.220;2023-03-22T02:58:35;98565.72;;;10.20;63.50
48874;BME280;66155;46.204;5.220;2023-03-22T03:09:29;98562.72;;;10.06;63.45
48874;BME280;66155;46.204;5.220;2023-03-22T03:14:36;98561.22;;;10.16;61.91
48874;BME280;66155;46.204;5.220;2023-03-22T03:33:03;98539.53;;;10.64;59.37
48874;BME280;66155;46.204;5.220;2023-03-22T03:39:09;98540.34;;;10.70;59.19
48874;BME280;66155;46.204;5.220;2023-03-22T03:45:09;98526.78;;;10.68;58.42
48874;BME280;66155;46.204;5.220;2023-03-22T03:51:06;98540.06;;;10.67;58.82
48874;BME280;66155;46.204;5.220;2023-03-22T04:03:16;98530.38;;;10.62;57.90
48874;BME280;66155;46.204;5.220;2023-03-22T04:14:27;98534.16;;;10.17;59.29
48874;BME280;66155;46.204;5.220;2023-03-22T04:19:28;98535.72;;;10.18;59.14
48874;BME280;66155;46.204;5.220;2023-03-22T04:24:28;98522.81;;;10.28;58.35
48874;BME280;66155;46.204;5.220;2023-03-22T04:29:28;98516.28;;;10.25;58.64
48874;BME280;66155;46.204;5.220;2023-03-22T04:34:31;98525.31;;;10.18;59.04
48874;BME280;66155;46.204;5.220;2023-03-22T04:39:31;98518.84;;;10.20;58.77
48874;BME280;66155;46.204;5.220;2023-03-22T04:44:32;98527.22;;;10.27;58.58
48874;BME280;66155;46.204;5.220;2023-03-22T04:49:32;98519.63;;;10.21;58.69
48874;BME280;66155;46.204;5.220;2023-03-22T04:54:33;98524.50;;;10.12;58.58
48874;BME280;66155;46.204;5.220;2023-03-22T04:59:33;98521.09;;;10.12;58.71
48874;BME280;66155;46.204;5.220;2023-03-22T05:04:34;98520.63;;;10.15;58.43
48874;BME280;66155;46.204;5.220;2023-03-22T05:09:34;98522.47;;;10.19;58.62
48874;BME280;66155;46.204;5.220;2023-03-22T05:14:35;98519.00;;;10.08;58.69
48874;BME280;66155;46.204;5.220;2023-03-22T05:19:35;98531.94;;;10.03;58.88
48874;BME280;66155;46.204;5.220;2023-03-22T05:24:36;98535.19;;;10.16;58.59
48874;BME280;66155;46.204;5.220;2023-03-22T05:29:36;98523.03;;;10.26;57.80
48874;BME280;66155;46.204;5.220;2023-03-22T05:34:37;98524.63;;;10.27;58.05
48874;BME280;66155;46.204;5.220;2023-03-22T05:39:37;98525.41;;;10.28;58.17
48874;BME280;66155;46.204;5.220;2023-03-22T05:44:38;98521.31;;;10.32;58.12
48874;BME280;66155;46.204;5.220;2023-03-22T05:49:38;98523.44;;;10.40;57.37
48874;BME280;66155;46.204;5.220;2023-03-22T05:54:39;98527.13;;;10.44;57.52
48874;BME280;66155;46.204;5.220;2023-03-22T05:59:39;98533.94;;;10.51;57.46
48874;BME280;66155;46.204;5.220;2023-03-22T06:04:40;98535.81;;;10.55;57.10
48874;BME280;66155;46.204;5.220;2023-03-22T06:09:40;98529.56;;;10.56;57.33
48874;BME280;66155;46.204;5.220;2023-03-22T06:14:41;98535.53;;;10.52;57.51
48874;BME280;66155;46.204;5.220;2023-03-22T06:19:41;98534.31;;;10.64;57.24
48874;BME280;66155;46.204;5.220;2023-03-22T06:24:42;98521.31;;;10.70;57.54
48874;BME280;66155;46.204;5.220;2023-03-22T06:29:43;98524.06;;;10.53;57.56
48874;BME280;66155;46.204;5.220;2023-03-22T06:34:44;98532.31;;;10.39;58.00
48874;BME280;66155;46.204;5.220;2023-03-22T06:39:44;98533.63;;;10.42;57.81
48874;BME280;66155;46.204;5.220;2023-03-22T06:44:45;98539.78;;;10.63;57.83
48874;BME280;66155;46.204;5.220;2023-03-22T06:49:45;98535.16;;;10.75;57.02
48874;BME280;66155;46.204;5.220;2023-03-22T06:54:46;98536.00;;;10.86;57.26
48874;BME280;66155;46.204;5.220;2023-03-22T06:59:46;98533.22;;;10.98;57.10
48874;BME280;66155;46.204;5.220;2023-03-22T07:04:47;98542.91;;;11.08;57.00
48874;BME280;66155;46.204;5.220;2023-03-22T07:09:47;98540.09;;;11.14;56.83
48874;BME280;66155;46.204;5.220;2023-03-22T07:14:49;98535.94;;;11.23;56.85
48874;BME280;66155;46.204;5.220;2023-03-22T07:19:49;98546.72;;;11.37;56.39
48874;BME280;66155;46.204;5.220;2023-03-22T07:24:50;98551.97;;;11.48;56.31
48874;BME280;66155;46.204;5.220;2023-03-22T07:29:51;98550.94;;;11.54;56.21
48874;BME280;66155;46.204;5.220;2023-03-22T07:34:51;98551.25;;;11.68;55.99
48874;BME280;66155;46.204;5.220;2023-03-22T07:39:52;98547.09;;;11.77;55.50
48874;BME280;66155;46.204;5.220;2023-03-22T07:44:52;98556.06;;;11.96;55.33
48874;BME280;66155;46.204;5.220;2023-03-22T07:49:53;98558.16;;;12.15;55.08
48874;BME280;66155;46.204;5.220;2023-03-22T07:54:53;98551.13;;;12.31;54.92
48874;BME280;66155;46.204;5.220;2023-03-22T07:59:54;98566.56;;;12.53;54.79
48874;BME280;66155;46.204;5.220;2023-03-22T08:04:56;98556.88;;;12.74;54.73
48874;BME280;66155;46.204;5.220;2023-03-22T08:09:56;98554.53;;;12.78;54.26
48874;BME280;66155;46.204;5.220;2023-03-22T08:14:57;98547.69;;;12.92;54.03
48874;BME280;66155;46.204;5.220;2023-03-22T08:19:57;98547.94;;;13.06;53.62
48874;BME280;66155;46.204;5.220;2023-03-22T08:24:58;98534.28;;;13.19;53.24
48874;BME280;66155;46.204;5.220;2023-03-22T08:29:58;98542.88;;;13.25;53.01
48874;BME280;66155;46.204;5.220;2023-03-22T08:34:59;98554.38;;;13.34;52.98
48874;BME280;66155;46.204;5.220;2023-03-22T08:40:00;98558.78;;;13.49;52.98
48874;BME280;66155;46.204;5.220;2023-03-22T08:45:01;98560.03;;;13.62;52.56
48874;BME280;66155;46.204;5.220;2023-03-22T08:50:02;98555.81;;;13.71;52.41
48874;BME280;66155;46.204;5.220;2023-03-22T08:55:04;98553.66;;;13.78;52.09
48874;BME280;66155;46.204;5.220;2023-03-22T09:00:06;98551.59;;;13.80;51.97
48874;BME280;66155;46.204;5.220;2023-03-22T09:05:07;98557.81;;;13.90;52.21
48874;BME280;66155;46.204;5.220;2023-03-22T09:10:08;98550.38;;;14.07;51.83
48874;BME280;66155;46.204;5.220;2023-03-22T09:15:09;98554.22;;;14.20;51.88
48874;BME280;66155;46.204;5.220;2023-03-22T09:20:10;98553.63;;;14.28;51.59
48874;BME280;66155;46.204;5.220;2023-03-22T09:25:10;98553.56;;;14.33;51.61
48874;BME280;66155;46.204;5.220;2023-03-22T09:30:11;98559.75;;;14.48;51.85
48874;BME280;66155;46.204;5.220;2023-03-22T09:35:12;98547.69;;;14.52;52.34
48874;BME280;66155;46.204;5.220;2023-03-22T09:40:12;98546.88;;;14.51;52.29
48874;BME280;66155;46.204;5.220;2023-03-22T09:45:27;98538.09;;;14.71;51.89
48874;BME280;66155;46.204;5.220;2023-03-22T09:50:41;98528.19;;;14.92;51.11
48874;BME280;66155;46.204;5.220;2023-03-22T09:55:54;98529.97;;;14.97;50.50
48874;BME280;66155;46.204;5.220;2023-03-22T10:01:32;98517.13;;;15.19;49.05
48874;BME280;66155;46.204;5.220;2023-03-22T10:06:36;98513.75;;;15.38;49.37
48874;BME280;66155;46.204;5.220;2023-03-22T10:11:43;98515.91;;;15.55;47.64
48874;BME280;66155;46.204;5.220;2023-03-22T10:16:45;98512.19;;;15.56;48.24
48874;BME280;66155;46.204;5.220;2023-03-22T10:21:48;98512.56;;;15.68;47.83
48874;BME280;66155;46.204;5.220;2023-03-22T10:26:51;98504.84;;;15.77;47.39
48874;BME280;66155;46.204;5.220;2023-03-22T10:31:53;98495.91;;;15.78;47.82
48874;BME280;66155;46.204;5.220;2023-03-22T10:36:54;98494.06;;;15.98;46.96
48874;BME280;66155;46.204;5.220;2023-03-22T10:41:55;98500.63;;;16.14;46.78
48874;BME280;66155;46.204;5.220;2023-03-22T10:46:59;98491.22;;;16.27;46.24
48874;BME280;66155;46.204;5.220;2023-03-22T10:52:27;98491.34;;;16.35;45.50
48874;BME280;66155;46.204;5.220;2023-03-22T10:57:30;98490.13;;;16.47;45.49
48874;BME280;66155;46.204;5.220;2023-03-22T11:02:31;98484.84;;;16.61;45.33
48874;BME280;66155;46.204;5.220;2023-03-22T11:07:42;98476.41;;;16.78;44.73
48874;BME280;66155;46.204;5.220;2023-03-22T11:12:48;98476.03;;;16.84;44.38
48874;BME280;66155;46.204;5.220;2023-03-22T11:17:50;98474.28;;;16.94;44.16
48874;BME280;66155;46.204;5.220;2023-03-22T11:22:50;98475.72;;;17.00;43.89
48874;BME280;66155;46.204;5.220;2023-03-22T11:28:18;98481.97;;;16.90;43.26
48874;BME280;66155;46.204;5.220;2023-03-22T11:33:20;98475.06;;;16.94;42.89
48874;BME280;66155;46.204;5.220;2023-03-22T11:38:36;98477.47;;;17.18;43.20
48874;BME280;66155;46.204;5.220;2023-03-22T11:43:39;98471.31;;;17.23;42.47
48874;BME280;66155;46.204;5.220;2023-03-22T11:48:44;98468.25;;;17.43;42.25
48874;BME280;66155;46.204;5.220;2023-03-22T11:53:47;98453.91;;;17.49;41.05
48874;BME280;66155;46.204;5.220;2023-03-22T12:03:54;98452.16;;;17.67;41.15
48874;BME280;66155;46.204;5.220;2023-03-22T12:09:04;98442.25;;;17.87;42.05
48874;BME280;66155;46.204;5.220;2023-03-22T12:14:14;98439.09;;;17.99;42.42
48874;BME280;66155;46.204;5.220;2023-03-22T12:24:31;98420.25;;;18.46;41.53
48874;BME280;66155;46.204;5.220;2023-03-22T12:29:32;98412.53;;;18.58;40.70
48874;BME280;66155;46.204;5.220;2023-03-22T12:34:38;98407.94;;;18.81;39.71
48874;BME280;66155;46.204;5.220;2023-03-22T12:39:55;98386.94;;;18.76;38.57
48874;BME280;66155;46.204;5.220;2023-03-22T12:45:05;98379.25;;;18.88;38.47
48874;BME280;66155;46.204;5.220;2023-03-22T12:50:41;98363.88;;;18.99;36.35
48874;BME280;66155;46.204;5.220;2023-03-22T12:55:43;98361.91;;;19.13;37.10
48874;BME280;66155;46.204;5.220;2023-03-22T13:00:58;98343.72;;;19.29;35.96
48874;BME280;66155;46.204;5.220;2023-03-22T13:06:28;98338.97;;;19.61;36.51
48874;BME280;66155;46.204;5.220;2023-03-22T13:11:27;98336.75;;;19.89;34.16
48874;BME280;66155;46.204;5.220;2023-03-22T13:16:47;98320.06;;;20.06;33.63
48874;BME280;66155;46.204;5.220;2023-03-22T13:21:48;98312.00;;;20.32;33.30
48874;BME280;66155;46.204;5.220;2023-03-22T13:26:51;98303.75;;;20.85;31.72
48874;BME280;66155;46.204;5.220;2023-03-22T13:31:57;98303.94;;;21.68;30.57
48874;BME280;66155;46.204;5.220;2023-03-22T13:36:59;98278.38;;;23.30;27.84
48874;BME280;66155;46.204;5.220;2023-03-22T13:42:08;98277.88;;;24.20;25.88
48874;BME280;66155;46.204;5.220;2023-03-22T13:47:42;98272.13;;;25.12;25.06
48874;BME280;66155;46.204;5.220;2023-03-22T13:57:58;98253.50;;;26.65;24.63
48874;BME280;66155;46.204;5.220;2023-03-22T14:03:02;98243.88;;;27.32;23.39
48874;BME280;66155;46.204;5.220;2023-03-22T14:08:05;98232.66;;;28.19;21.39
48874;BME280;66155;46.204;5.220;2023-03-22T14:18:32;98214.19;;;28.95;21.13
48874;BME280;66155;46.204;5.220;2023-03-22T14:23:37;98212.69;;;29.69;21.00
48874;BME280;66155;46.204;5.220;2023-03-22T14:28:40;98213.81;;;29.68;20.88
48874;BME280;66155;46.204;5.220;2023-03-22T14:33:41;98206.94;;;29.82;20.19
48874;BME280;66155;46.204;5.220;2023-03-22T14:38:45;98208.44;;;29.11;19.90
48874;BME280;66155;46.204;5.220;2023-03-22T14:43:48;98210.03;;;29.55;20.68
48874;BME280;66155;46.204;5.220;2023-03-22T14:48:51;98201.56;;;29.78;20.28
48874;BME280;66155;46.204;5.220;2023-03-22T14:53:53;98191.22;;;29.62;19.86
48874;BME280;66155;46.204;5.220;2023-03-22T14:58:55;98192.34;;;28.96;20.00
48874;BME280;66155;46.204;5.220;2023-03-22T15:03:58;98193.72;;;27.70;20.99
48874;BME280;66155;46.204;5.220;2023-03-22T15:09:06;98189.41;;;27.10;21.39
48874;BME280;66155;46.204;5.220;2023-03-22T15:14:08;98186.47;;;26.81;21.79
48874;BME280;66155;46.204;5.220;2023-03-22T15:19:11;98187.69;;;25.93;22.80
48874;BME280;66155;46.204;5.220;2023-03-22T15:24:22;98188.25;;;25.29;23.32
48874;BME280;66155;46.204;5.220;2023-03-22T15:29:27;98184.94;;;24.70;23.78
48874;BME280;66155;46.204;5.220;2023-03-22T15:34:30;98183.38;;;24.49;24.28
48874;BME280;66155;46.204;5.220;2023-03-22T15:39:37;98184.91;;;24.12;24.58
48874;BME280;66155;46.204;5.220;2023-03-22T15:44:39;98191.94;;;23.68;25.53
48874;BME280;66155;46.204;5.220;2023-03-22T15:49:46;98197.53;;;23.47;26.16
48874;BME280;66155;46.204;5.220;2023-03-22T15:54:59;98189.72;;;23.39;26.08
48874;BME280;66155;46.204;5.220;2023-03-22T16:00:06;98185.34;;;23.30;26.17
48874;BME280;66155;46.204;5.220;2023-03-22T16:05:11;98188.16;;;23.38;26.14
48874;BME280;66155;46.204;5.220;2023-03-22T16:10:19;98182.59;;;23.43;26.49
48874;BME280;66155;46.204;5.220;2023-03-22T16:15:24;98179.59;;;23.44;26.74
48874;BME280;66155;46.204;5.220;2023-03-22T16:20:26;98172.09;;;23.82;26.56
48874;BME280;66155;46.204;5.220;2023-03-22T16:25:36;98165.00;;;24.05;26.46
48874;BME280;66155;46.204;5.220;2023-03-22T16:30:38;98166.16;;;24.24;26.33
48874;BME280;66155;46.204;5.220;2023-03-22T16:35:39;98163.41;;;24.40;26.23
48874;BME280;66155;46.204;5.220;2023-03-22T16:40:50;98162.78;;;24.46;26.03
48874;BME280;66155;46.204;5.220;2023-03-22T16:45:51;98153.88;;;24.58;26.15
48874;BME280;66155;46.204;5.220;2023-03-22T16:50:52;98159.53;;;24.37;26.34
48874;BME280;66155;46.204;5.220;2023-03-22T16:55:53;98156.03;;;23.78;26.85
48874;BME280;66155;46.204;5.220;2023-03-22T17:00:54;98165.78;;;23.23;27.29
48874;BME280;66155;46.204;5.220;2023-03-22T17:05:55;98170.88;;;22.84;27.70
48874;BME280;66155;46.204;5.220;2023-03-22T17:10:57;98167.16;;;22.44;28.24
48874;BME280;66155;46.204;5.220;2023-03-22T17:15:58;98170.31;;;22.21;28.42
48874;BME280;66155;46.204;5.220;2023-03-22T17:20:58;98169.91;;;22.07;28.85
48874;BME280;66155;46.204;5.220;2023-03-22T17:25:59;98180.31;;;21.88;29.11
48874;BME280;66155;46.204;5.220;2023-03-22T17:31:00;98181.66;;;21.69;29.35
48874;BME280;66155;46.204;5.220;2023-03-22T17:36:01;98184.53;;;21.52;29.55
48874;BME280;66155;46.204;5.220;2023-03-22T17:41:02;98194.19;;;21.35;29.92
48874;BME280;66155;46.204;5.220;2023-03-22T17:46:03;98180.81;;;21.19;30.08
48874;BME280;66155;46.204;5.220;2023-03-22T17:51:03;98190.81;;;21.01;30.58
48874;BME280;66155;46.204;5.220;2023-03-22T17:56:04;98187.69;;;20.87;30.73
48874;BME280;66155;46.204;5.220;2023-03-22T18:01:05;98185.44;;;20.77;30.98
48874;BME280;66155;46.204;5.220;2023-03-22T18:06:05;98184.19;;;20.62;31.08
48874;BME280;66155;46.204;5.220;2023-03-22T18:11:06;98178.38;;;20.47;31.27
48874;BME280;66155;46.204;5.220;2023-03-22T18:16:07;98181.53;;;20.41;31.53
48874;BME280;66155;46.204;5.220;2023-03-22T18:21:10;98182.38;;;20.32;31.86
48874;BME280;66155;46.204;5.220;2023-03-22T18:26:14;98190.13;;;20.17;32.06
48874;BME280;66155;46.204;5.220;2023-03-22T18:31:15;98183.94;;;20.04;32.81
48874;BME280;66155;46.204;5.220;2023-03-22T18:36:15;98188.56;;;19.86;32.69
48874;BME280;66155;46.204;5.220;2023-03-22T18:41:16;98181.78;;;19.76;32.99
48874;BME280;66155;46.204;5.220;2023-03-22T18:46:18;98195.78;;;19.68;32.86
48874;BME280;66155;46.204;5.220;2023-03-22T18:51:18;98196.94;;;19.58;33.35
48874;BME280;66155;46.204;5.220;2023-03-22T18:56:20;98194.63;;;19.48;33.55
48874;BME280;66155;46.204;5.220;2023-03-22T19:01:20;98201.97;;;19.42;33.51
48874;BME280;66155;46.204;5.220;2023-03-22T19:06:21;98218.75;;;19.37;33.77
48874;BME280;66155;46.204;5.220;2023-03-22T19:11:22;98209.31;;;19.28;34.09
48874;BME280;66155;46.204;5.220;2023-03-22T19:16:22;98208.69;;;19.22;34.04
48874;BME280;66155;46.204;5.220;2023-03-22T19:21:23;98214.47;;;19.15;34.07
48874;BME280;66155;46.204;5.220;2023-03-22T19:26:24;98210.88;;;19.11;34.47
48874;BME280;66155;46.204;5.220;2023-03-22T19:31:25;98215.41;;;19.02;34.45
48874;BME280;66155;46.204;5.220;2023-03-22T19:36:30;98220.84;;;18.97;34.42
48874;BME280;66155;46.204;5.220;2023-03-22T19:41:30;98213.44;;;18.90;34.76
48874;BME280;66155;46.204;5.220;2023-03-22T19:46:31;98212.50;;;18.86;34.95
48874;BME280;66155;46.204;5.220;2023-03-22T19:51:32;98222.13;;;18.82;35.17
48874;BME280;66155;46.204;5.220;2023-03-22T19:56:33;98216.66;;;18.78;35.11
48874;BME280;66155;46.204;5.220;2023-03-22T20:01:34;98229.88;;;18.78;35.60
48874;BME280;66155;46.204;5.220;2023-03-22T20:06:36;98232.03;;;18.76;35.67
48874;BME280;66155;46.204;5.220;2023-03-22T20:11:36;98253.78;;;18.73;36.00
48874;BME280;66155;46.204;5.220;2023-03-22T20:16:37;98228.94;;;18.66;36.67
48874;BME280;66155;46.204;5.220;2023-03-22T20:21:38;98235.13;;;18.61;36.99
48874;BME280;66155;46.204;5.220;2023-03-22T20:26:40;98219.59;;;18.51;37.53
48874;BME280;66155;46.204;5.220;2023-03-22T20:31:41;98191.06;;;18.44;38.00
48874;BME280;66155;46.204;5.220;2023-03-22T20:36:41;98217.59;;;18.39;38.11
48874;BME280;66155;46.204;5.220;2023-03-22T20:41:42;98194.16;;;18.29;39.33
48874;BME280;66155;46.204;5.220;2023-03-22T20:46:42;98244.25;;;18.29;39.01
48874;BME280;66155;46.204;5.220;2023-03-22T20:51:43;98237.44;;;18.36;38.85
48874;BME280;66155;46.204;5.220;2023-03-22T20:56:43;98241.47;;;18.25;39.76
48874;BME280;66155;46.204;5.220;2023-03-22T21:01:44;98252.31;;;18.23;39.78
48874;BME280;66155;46.204;5.220;2023-03-22T21:06:44;98243.63;;;18.23;39.75
48874;BME280;66155;46.204;5.220;2023-03-22T21:11:47;98270.44;;;18.16;39.93
48874;BME280;66155;46.204;5.220;2023-03-22T21:16:48;98274.97;;;18.24;40.05
48874;BME280;66155;46.204;5.220;2023-03-22T21:21:49;98272.00;;;18.09;40.44
48874;BME280;66155;46.204;5.220;2023-03-22T21:26:49;98298.03;;;18.01;40.21
48874;BME280;66155;46.204;5.220;2023-03-22T21:31:50;98287.16;;;18.03;40.60
48874;BME280;66155;46.204;5.220;2023-03-22T21:36:50;98283.91;;;18.06;40.45
48874;BME280;66155;46.204;5.220;2023-03-22T21:41:51;98271.19;;;18.08;40.68
48874;BME280;66155;46.204;5.220;2023-03-22T21:46:52;98302.06;;;18.08;40.64
48874;BME280;66155;46.204;5.220;2023-03-22T21:51:59;98314.34;;;18.12;40.98
48874;BME280;66155;46.204;5.220;2023-03-22T21:57:02;98321.91;;;18.05;41.62
48874;BME280;66155;46.204;5.220;2023-03-22T22:02:03;98301.13;;;18.03;42.20
48874;BME280;66155;46.204;5.220;2023-03-22T22:07:04;98309.28;;;17.93;42.92
48874;BME280;66155;46.204;5.220;2023-03-22T22:12:05;98312.34;;;17.86;43.33
48874;BME280;66155;46.204;5.220;2023-03-22T22:17:07;98301.16;;;17.81;43.71
48874;BME280;66155;46.204;5.220;2023-03-22T22:22:07;98317.44;;;17.83;43.40
48874;BME280;66155;46.204;5.220;2023-03-22T22:27:08;98292.94;;;17.82;43.76
48874;BME280;66155;46.204;5.220;2023-03-22T22:32:08;98295.72;;;17.77;43.91
48874;BME280;66155;46.204;5.220;2023-03-22T22:37:10;98309.34;;;17.79;44.01
48874;BME280;66155;46.204;5.220;2023-03-22T22:42:10;98296.00;;;17.76;44.27
48874;BME280;66155;46.204;5.220;2023-03-22T22:47:11;98277.69;;;17.71;44.71
48874;BME280;66155;46.204;5.220;2023-03-22T22:52:11;98264.66;;;17.65;45.05
48874;BME280;66155;46.204;5.220;2023-03-22T22:57:12;98263.09;;;17.64;44.92
48874;BME280;66155;46.204;5.220;2023-03-22T23:02:12;98266.75;;;17.55;45.08
48874;BME280;66155;46.204;5.220;2023-03-22T23:07:13;98262.88;;;17.52;44.86
48874;BME280;66155;46.204;5.220;2023-03-22T23:12:13;98266.13;;;17.49;45.47
48874;BME280;66155;46.204;5.220;2023-03-22T23:17:14;98280.00;;;17.41;45.59
48874;BME280;66155;46.204;5.220;2023-03-22T23:22:18;98280.88;;;17.27;46.08
48874;BME280;66155;46.204;5.220;2023-03-22T23:27:22;98279.06;;;17.14;46.84
48874;BME280;66155;46.204;5.220;2023-03-22T23:32:24;98277.22;;;17.15;46.56
48874;BME280;66155;46.204;5.220;2023-03-22T23:37:26;98252.50;;;17.02;47.09
48874;BME280;66155;46.204;5.220;2023-03-22T23:42:29;98251.06;;;16.96;47.11
48874;BME280;66155;46.204;5.220;2023-03-22T23:47:30;98250.59;;;16.94;46.98
48874;BME280;66155;46.204;5.220;2023-03-22T23:52:31;98253.94;;;16.85;47.18
48874;BME280;66155;46.204;5.220;2023-03-22T23:57:31;98249.56;;;16.81;47.05
